Time;durP1;ratioP1;P1;durP2;ratioP2;P2;SDS_P1;SDS_P2;PMS_P1;PMS_P2;Temp;Humidity;BMP_temperature;BMP_pressure;BME280_temperature;BME280_humidity;BME280_pressure;Samples;Min_cycle;Max_cycle;Signal;HPM_P1;HPM_P2
2023/03/04 00:00:51;;;;;;;12.23;3.30;;;;;;;5.07;100.00;102572.41;4906515;29;20135;-84
2023/03/04 00:03:17;;;;;;;8.93;3.55;;;;;;;5.08;100.00;102568.53;4894611;29;20517;-84
2023/03/04 00:05:42;;;;;;;9.02;3.15;;;;;;;5.07;100.00;102560.50;4897541;29;20080;-84
2023/03/04 00:08:07;;;;;;;17.90;3.92;;;;;;;5.04;100.00;102555.56;4898478;29;20032;-84
2023/03/04 00:10:33;;;;;;;21.77;5.22;;;;;;;5.05;100.00;102560.78;4905564;29;20558;-84
2023/03/04 00:12:58;;;;;;;20.05;3.83;;;;;;;5.04;100.00;102561.91;4909155;29;20461;-84
2023/03/04 00:15:23;;;;;;;9.48;2.40;;;;;;;5.02;100.00;102555.03;4897806;29;20028;-84
2023/03/04 00:17:49;;;;;;;12.85;2.13;;;;;;;5.04;100.00;102556.38;4897897;29;20033;-84
2023/03/04 00:20:14;;;;;;;17.00;2.95;;;;;;;5.04;100.00;102550.81;4890397;29;20119;-84
2023/03/04 00:22:40;;;;;;;10.25;2.50;;;;;;;5.06;100.00;102559.66;4887898;29;20294;-84
2023/03/04 00:25:05;;;;;;;11.52;2.50;;;;;;;5.09;100.00;102553.50;4897700;29;20114;-84
2023/03/04 00:27:31;;;;;;;10.63;2.28;;;;;;;5.05;100.00;102555.22;4894318;29;20020;-84
2023/03/04 00:29:56;;;;;;;10.95;3.00;;;;;;;5.04;100.00;102558.31;4914891;29;20236;-84
2023/03/04 00:32:22;;;;;;;7.43;2.45;;;;;;;5.05;100.00;102559.97;4894710;29;20495;-84
2023/03/04 00:34:47;;;;;;;11.82;2.88;;;;;;;5.01;100.00;102543.06;4894841;29;20482;-84
2023/03/04 00:37:13;;;;;;;10.77;2.20;;;;;;;5.04;100.00;102545.25;4909336;29;20035;-84
2023/03/04 00:39:38;;;;;;;25.27;3.08;;;;;;;5.06;100.00;102548.56;4896100;29;20048;-84
2023/03/04 00:42:04;;;;;;;10.27;3.88;;;;;;;5.01;100.00;102540.28;4910349;29;20026;-84
2023/03/04 00:44:29;;;;;;;9.32;2.25;;;;;;;5.06;100.00;102548.56;4914747;29;20080;-84
2023/03/04 00:46:54;;;;;;;13.40;2.55;;;;;;;5.10;100.00;102543.22;4913455;29;20032;-84
2023/03/04 00:49:20;;;;;;;10.75;2.65;;;;;;;5.03;100.00;102543.59;4897538;29;20039;-84
2023/03/04 00:51:45;;;;;;;17.30;3.42;;;;;;;5.06;100.00;102542.19;4895240;29;20589;-84
2023/03/04 00:54:11;;;;;;;10.60;3.20;;;;;;;5.04;100.00;102545.25;4894907;29;20043;-84
2023/03/04 00:56:36;;;;;;;12.52;2.65;;;;;;;5.07;100.00;102544.66;4896197;29;20091;-84
2023/03/04 00:59:02;;;;;;;13.13;2.72;;;;;;;5.05;100.00;102544.13;4897007;29;20034;-84
2023/03/04 01:01:27;;;;;;;15.48;2.75;;;;;;;5.06;100.00;102547.75;4883650;29;20347;-84
2023/03/04 01:03:52;;;;;;;10.27;2.38;;;;;;;5.04;100.00;102550.81;4894016;29;20056;-84
2023/03/04 01:06:18;;;;;;;6.75;3.80;;;;;;;4.94;100.00;102545.41;4908852;29;20024;-84
2023/03/04 01:08:43;;;;;;;18.13;3.83;;;;;;;5.06;100.00;102551.34;4891871;29;20065;-84
2023/03/04 01:11:09;;;;;;;10.70;2.53;;;;;;;5.04;100.00;102550.81;4894893;29;20035;-84
2023/03/04 01:13:34;;;;;;;7.38;2.20;;;;;;;5.02;100.00;102555.84;4911324;29;20016;-84
2023/03/04 01:16:00;;;;;;;15.75;3.05;;;;;;;5.03;100.00;102560.25;4922704;29;20028;-84
2023/03/04 01:18:25;;;;;;;22.10;3.53;;;;;;;5.00;100.00;102560.88;4933314;29;20404;-84
2023/03/04 01:20:51;;;;;;;16.90;3.13;;;;;;;5.04;100.00;102555.56;4911248;29;20033;-85
2023/03/04 01:23:16;;;;;;;6.88;3.03;;;;;;;5.01;100.00;102556.94;4910080;29;20028;-84
2023/03/04 01:25:42;;;;;;;12.30;3.65;;;;;;;5.00;100.00;102548.94;4892844;29;20024;-84
2023/03/04 01:28:07;;;;;;;13.63;3.03;;;;;;;5.04;100.00;102542.50;4913410;29;20039;-84
2023/03/04 01:30:33;;;;;;;9.68;2.97;;;;;;;5.03;100.00;102540.00;4926906;29;20111;-84
2023/03/04 01:32:58;;;;;;;9.10;2.67;;;;;;;5.03;100.00;102542.78;4900560;29;20032;-84
2023/03/04 01:35:24;;;;;;;10.30;2.75;;;;;;;5.08;100.00;102539.91;4900599;29;20043;-84
2023/03/04 01:37:49;;;;;;;19.83;3.30;;;;;;;5.05;100.00;102541.34;4900235;29;20091;-84
2023/03/04 01:40:15;;;;;;;10.25;2.50;;;;;;;5.03;100.00;102535.28;4912381;29;20052;-84
2023/03/04 01:42:41;;;;;;;11.65;3.17;;;;;;;5.00;100.00;102526.75;4901670;29;20024;-84
2023/03/04 01:45:10;;;;;;;8.85;3.33;;;;;;;5.02;100.00;102527.28;4902258;29;20055;-84
2023/03/04 01:47:35;;;;;;;12.80;2.97;;;;;;;5.00;100.00;102530.34;4914433;29;20429;-84
2023/03/04 01:50:03;;;;;;;10.27;2.80;;;;;;;5.02;100.00;102524.50;4897078;29;20039;-84
2023/03/04 01:52:29;;;;;;;11.38;2.22;;;;;;;5.02;100.00;102519.75;4906149;29;20392;-84
2023/03/04 01:54:54;;;;;;;10.80;3.50;;;;;;;5.00;100.00;102516.47;4904142;29;20038;-84
2023/03/04 01:57:22;;;;;;;12.05;2.75;;;;;;;5.02;100.00;102513.41;4894519;29;20028;-84
2023/03/04 02:00:30;;;;;;;13.57;2.45;;;;;;;4.98;100.00;102515.94;4881399;29;20052;-84
2023/03/04 02:03:10;;;;;;;13.10;3.20;;;;;;;4.96;100.00;102506.25;4884663;29;20041;-84
2023/03/04 02:05:38;;;;;;;12.98;2.35;;;;;;;4.98;100.00;102502.06;4897074;29;20114;-84
2023/03/04 02:08:05;;;;;;;6.97;3.03;;;;;;;4.98;100.00;102499.28;4899953;29;20468;-84
2023/03/04 02:10:31;;;;;;;9.90;3.65;;;;;;;4.96;100.00;102498.75;4916923;29;20071;-84
2023/03/04 02:12:58;;;;;;;11.40;3.38;;;;;;;4.98;100.00;102499.28;4898788;29;20033;-84
2023/03/04 02:15:23;;;;;;;11.65;2.22;;;;;;;4.98;100.00;102493.72;4912291;29;20031;-84
2023/03/04 02:17:49;;;;;;;9.98;2.47;;;;;;;4.98;100.00;102507.59;4899856;29;20032;-84
2023/03/04 02:20:33;;;;;;;12.57;2.95;;;;;;;4.99;100.00;102491.78;4916724;29;20269;-84
2023/03/04 02:23:12;;;;;;;15.82;3.08;;;;;;;4.99;100.00;102497.31;4899565;29;20028;-84
2023/03/04 02:25:46;;;;;;;11.75;3.42;;;;;;;5.00;100.00;102480.38;4899906;29;20464;-84
2023/03/04 02:28:12;;;;;;;14.13;3.58;;;;;;;4.96;100.00;102482.09;4896694;29;20545;-84
2023/03/04 02:30:38;;;;;;;9.00;2.63;;;;;;;4.97;100.00;102483.75;4896901;29;20127;-84
2023/03/04 02:33:04;;;;;;;6.45;2.03;;;;;;;4.96;100.00;102484.88;4899062;29;20035;-84
2023/03/04 02:35:29;;;;;;;12.82;2.70;;;;;;;4.97;100.00;102478.19;4899319;29;20067;-84
2023/03/04 02:37:54;;;;;;;20.45;3.97;;;;;;;5.00;100.00;102483.16;4912314;29;20062;-84
2023/03/04 02:40:30;;;;;;;12.73;2.92;;;;;;;4.94;100.00;102487.13;4899562;29;20135;-84
2023/03/04 02:42:59;;;;;;;8.23;1.95;;;;;;;4.93;100.00;102484.66;4898410;29;20024;-84
2023/03/04 02:45:39;;;;;;;13.70;3.10;;;;;;;4.93;100.00;102482.69;4900808;29;20032;-84
2023/03/04 02:48:05;;;;;;;15.93;2.55;;;;;;;4.92;100.00;102474.69;4883215;29;20033;-85
2023/03/04 02:50:34;;;;;;;9.15;3.42;;;;;;;4.92;100.00;102481.06;4899294;29;20054;-84
2023/03/04 02:53:00;;;;;;;18.33;3.10;;;;;;;4.94;100.00;102481.59;4897800;29;20515;-83
2023/03/04 02:55:25;;;;;;;11.45;3.15;;;;;;;4.94;100.00;102470.47;4895363;29;20029;-84
2023/03/04 02:57:50;;;;;;;8.90;2.30;;;;;;;4.97;100.00;102472.63;4896461;29;20100;-84
2023/03/04 03:00:16;;;;;;;4.13;2.00;;;;;;;4.95;100.00;102466.56;4895933;29;20035;-83
2023/03/04 03:02:42;;;;;;;8.45;2.33;;;;;;;4.88;100.00;102468.91;4904822;29;20048;-84
2023/03/04 03:05:07;;;;;;;12.23;4.10;;;;;;;4.94;100.00;102462.16;4898839;29;20103;-84
2023/03/04 03:07:33;;;;;;;7.45;3.15;;;;;;;4.92;100.00;102456.09;4898988;29;20342;-84
2023/03/04 03:09:59;;;;;;;10.10;2.53;;;;;;;4.91;100.00;102457.19;4907562;29;20351;-84
2023/03/04 03:12:25;;;;;;;17.75;4.80;;;;;;;4.85;100.00;102455.66;4903254;29;20037;-84
2023/03/04 03:14:50;;;;;;;24.85;3.53;;;;;;;4.92;100.00;102461.63;4880109;29;20039;-84
2023/03/04 03:17:16;;;;;;;9.35;2.58;;;;;;;4.97;100.00;102457.94;4913331;29;20032;-84
2023/03/04 03:19:41;;;;;;;15.55;2.22;;;;;;;4.90;100.00;102461.09;4900046;29;20062;-84
2023/03/04 03:22:07;;;;;;;10.38;2.92;;;;;;;4.88;100.00;102458.63;4899334;29;20070;-84
2023/03/04 03:24:32;;;;;;;9.63;3.00;;;;;;;4.80;100.00;102447.38;4903346;29;20024;-84
2023/03/04 03:26:57;;;;;;;9.45;1.90;;;;;;;4.85;100.00;102453.69;4903485;29;20028;-84
2023/03/04 03:29:23;;;;;;;11.60;3.08;;;;;;;4.89;100.00;102454.75;4911039;29;20290;-84
2023/03/04 03:31:48;;;;;;;8.93;2.55;;;;;;;4.83;100.00;102453.16;4892857;29;20060;-84
2023/03/04 03:34:14;;;;;;;11.18;2.15;;;;;;;4.88;100.00;102449.47;4890947;29;20028;-84
2023/03/04 03:36:39;;;;;;;10.52;2.17;;;;;;;4.84;100.00;102442.88;4916164;29;20036;-84
2023/03/04 03:39:05;;;;;;;6.63;2.10;;;;;;;4.87;100.00;102440.34;4895516;29;20029;-84
2023/03/04 03:41:30;;;;;;;11.20;2.03;;;;;;;4.86;100.00;102441.44;4889378;29;20048;-84
2023/03/04 03:43:55;;;;;;;14.13;2.90;;;;;;;4.90;100.00;102444.47;4898713;29;20102;-84
2023/03/04 03:46:21;;;;;;;7.38;2.35;;;;;;;4.89;100.00;102437.25;4898385;29;20059;-84
2023/03/04 03:48:46;;;;;;;4.25;2.05;;;;;;;4.93;100.00;102441.06;4915435;29;20035;-84
2023/03/04 03:51:12;;;;;;;10.40;3.05;;;;;;;4.86;100.00;102437.84;4898483;29;20119;-84
2023/03/04 03:53:37;;;;;;;14.32;3.42;;;;;;;4.84;100.00;102437.34;4902443;29;20056;-84
2023/03/04 03:56:03;;;;;;;12.75;2.45;;;;;;;4.85;100.00;102442.59;4913789;29;20047;-84
2023/03/04 03:58:28;;;;;;;13.48;2.95;;;;;;;4.82;100.00;102437.63;4894630;29;20044;-84
2023/03/04 04:00:54;;;;;;;8.57;2.58;;;;;;;4.82;100.00;102443.19;4879816;29;20071;-84
2023/03/04 04:03:19;;;;;;;7.40;3.08;;;;;;;4.77;100.00;102436.91;4899889;29;20132;-84
2023/03/04 04:05:45;;;;;;;10.68;3.38;;;;;;;4.79;100.00;102438.25;4915074;29;20102;-84
2023/03/04 04:08:15;;;;;;;13.55;2.50;;;;;;;4.90;100.00;102436.13;4910467;29;20051;-84
2023/03/04 04:10:41;;;;;;;6.05;2.10;;;;;;;4.88;100.00;102428.09;4895817;29;20032;-84
2023/03/04 04:13:08;;;;;;;12.73;2.08;;;;;;;4.78;100.00;102424.66;4909493;29;20115;-84
2023/03/04 04:15:34;;;;;;;16.10;2.92;;;;;;;4.80;100.00;102428.78;4898655;29;20040;-84
2023/03/04 04:17:59;;;;;;;10.07;3.05;;;;;;;4.79;100.00;102427.16;4910947;29;20033;-84
2023/03/04 04:20:24;;;;;;;14.18;3.20;;;;;;;4.74;100.00;102423.63;4898301;29;20063;-83
2023/03/04 04:22:50;;;;;;;15.88;3.20;;;;;;;4.77;100.00;102423.84;4898227;29;20024;-84
2023/03/04 04:25:15;;;;;;;15.07;2.67;;;;;;;4.77;100.00;102423.84;4897518;29;20024;-84
2023/03/04 04:27:41;;;;;;;6.20;2.08;;;;;;;4.79;100.00;102420.78;4892922;29;20033;-84
2023/03/04 04:30:07;;;;;;;9.02;2.75;;;;;;;4.80;100.00;102414.09;4894747;29;20076;-84
2023/03/04 04:32:32;;;;;;;11.82;2.70;;;;;;;4.76;100.00;102415.81;4897203;29;20405;-84
2023/03/04 04:34:58;;;;;;;19.30;3.28;;;;;;;4.82;100.00;102414.63;4894246;29;20029;-84
2023/03/04 04:37:23;;;;;;;13.55;2.60;;;;;;;4.84;100.00;102420.69;4882467;29;20039;-83
2023/03/04 04:39:50;;;;;;;11.13;2.00;;;;;;;4.83;100.00;102413.50;4893923;29;20048;-83
2023/03/04 04:42:15;;;;;;;8.93;2.00;;;;;;;4.94;100.00;102416.94;4896981;29;20493;-84
2023/03/04 04:44:41;;;;;;;12.75;2.40;;;;;;;4.82;100.00;102409.06;4897788;29;20027;-84
2023/03/04 04:47:06;;;;;;;7.15;2.25;;;;;;;4.80;100.00;102403.00;4897023;29;20058;-84
2023/03/04 04:49:32;;;;;;;9.55;2.67;;;;;;;4.81;100.00;102407.44;4912999;29;20032;-84
2023/03/04 04:51:57;;;;;;;4.88;2.83;;;;;;;4.85;100.00;102403.75;4897173;29;20501;-84
2023/03/04 04:54:23;;;;;;;11.48;2.10;;;;;;;4.85;100.00;102403.75;4894893;29;20035;-84
2023/03/04 04:56:49;;;;;;;15.85;2.67;;;;;;;4.81;100.00;102402.69;4897185;29;20072;-84
2023/03/04 04:59:14;;;;;;;20.98;2.33;;;;;;;4.84;100.00;102423.47;4914336;29;20361;-84
2023/03/04 05:01:40;;;;;;;13.13;2.95;;;;;;;4.80;100.00;102417.69;4913278;29;20032;-84
2023/03/04 05:04:05;;;;;;;15.95;3.38;;;;;;;4.81;100.00;102421.31;4897278;29;20465;-84
2023/03/04 05:06:30;;;;;;;9.32;2.72;;;;;;;4.81;100.00;102424.06;4896531;29;20042;-84
2023/03/04 05:08:56;;;;;;;8.35;2.28;;;;;;;4.76;100.00;102416.63;4896460;29;20115;-84
2023/03/04 05:11:21;;;;;;;11.07;2.40;;;;;;;4.79;100.00;102416.06;4901065;29;20039;-84
2023/03/04 05:13:47;;;;;;;8.18;1.92;;;;;;;4.79;100.00;102426.31;4908457;29;20482;-84
2023/03/04 05:16:14;;;;;;;5.13;1.73;;;;;;;4.77;100.00;102420.25;4894131;29;20024;-84
2023/03/04 05:18:39;;;;;;;9.55;2.08;;;;;;;4.83;100.00;102410.72;4886397;29;20028;-84
2023/03/04 05:21:05;;;;;;;7.60;1.98;;;;;;;4.83;100.00;102413.50;4895527;29;20167;-84
2023/03/04 05:23:33;;;;;;;12.40;2.40;;;;;;;4.81;100.00;102412.97;4896736;29;20032;-84
2023/03/04 05:25:59;;;;;;;10.65;2.50;;;;;;;4.83;100.00;102399.63;4897144;29;20038;-84
2023/03/04 05:28:24;;;;;;;11.68;2.10;;;;;;;4.85;100.00;102420.41;4913933;29;20373;-84
2023/03/04 05:30:50;;;;;;;8.93;2.55;;;;;;;4.80;100.00;102405.78;4886623;29;20540;-84
2023/03/04 05:33:16;;;;;;;6.35;1.85;;;;;;;4.84;100.00;102407.63;4878036;29;20021;-84
2023/03/04 05:35:43;;;;;;;12.38;2.65;;;;;;;4.81;100.00;102407.44;4899111;29;20162;-84
2023/03/04 05:38:12;;;;;;;6.43;1.65;;;;;;;4.85;100.00;102412.06;4903261;29;20111;-84
2023/03/04 05:40:38;;;;;;;9.07;3.15;;;;;;;4.81;100.00;102407.44;4914080;29;20087;-84
2023/03/04 05:43:03;;;;;;;13.40;2.47;;;;;;;4.89;100.00;102407.56;4913663;29;20039;-84
2023/03/04 05:45:29;;;;;;;10.82;1.95;;;;;;;4.79;100.00;102404.13;4896365;29;20036;-84
2023/03/04 05:47:54;;;;;;;7.72;3.25;;;;;;;4.84;100.00;102412.38;4893562;29;20036;-84
2023/03/04 05:50:21;;;;;;;6.95;1.85;;;;;;;4.81;100.00;102412.97;4894148;29;20039;-84
2023/03/04 05:52:47;;;;;;;8.20;2.05;;;;;;;4.82;100.00;102414.63;4894687;29;20238;-84
2023/03/04 05:55:13;;;;;;;5.90;1.90;;;;;;;4.76;100.00;102410.28;4895586;29;20107;-84
2023/03/04 05:57:39;;;;;;;8.25;1.98;;;;;;;4.83;100.00;102416.28;4921223;29;20092;-84
2023/03/04 06:00:08;;;;;;;13.27;3.65;;;;;;;4.80;100.00;102417.69;4896304;29;20036;-84
2023/03/04 06:02:34;;;;;;;7.25;1.73;;;;;;;4.78;100.00;102419.13;4896614;29;20032;-84
2023/03/04 06:04:59;;;;;;;8.02;1.70;;;;;;;4.79;100.00;102415.22;4892224;29;20021;-84
2023/03/04 06:07:25;;;;;;;4.18;1.63;;;;;;;4.69;100.00;102417.00;4896464;29;20488;-84
2023/03/04 06:09:50;;;;;;;6.00;1.52;;;;;;;4.69;100.00;102417.00;4927779;29;20031;-84
2023/03/04 06:12:15;;;;;;;6.72;1.65;;;;;;;4.65;100.00;102410.41;4896394;29;20442;-84
2023/03/04 06:14:41;;;;;;;12.38;2.33;;;;;;;4.64;100.00;102407.97;4896761;29;20032;-84
2023/03/04 06:17:06;;;;;;;6.40;2.22;;;;;;;4.66;100.00;102409.31;4888723;29;20032;-84
2023/03/04 06:19:32;;;;;;;7.18;1.77;;;;;;;4.58;100.00;102398.88;4887957;29;20096;-84
2023/03/04 06:21:58;;;;;;;5.15;2.00;;;;;;;4.67;100.00;102419.25;4896853;29;20060;-84
2023/03/04 06:24:23;;;;;;;12.60;1.83;;;;;;;4.69;100.00;102413.44;4899518;29;20051;-84
2023/03/04 06:26:49;;;;;;;6.95;1.80;;;;;;;4.71;100.00;102407.59;4903064;29;20566;-84
2023/03/04 06:29:14;;;;;;;7.93;1.98;;;;;;;4.65;100.00;102423.47;4903360;29;20060;-84
2023/03/04 06:31:40;;;;;;;9.10;1.75;;;;;;;4.72;100.00;102414.75;4897157;29;20036;-84
2023/03/04 06:34:07;;;;;;;5.30;1.63;;;;;;;4.71;100.00;102429.78;4892776;29;20111;-84
2023/03/04 06:36:33;;;;;;;4.80;2.03;;;;;;;4.72;100.00;102414.75;4912180;29;20075;-84
2023/03/04 06:38:58;;;;;;;4.43;1.80;;;;;;;4.69;100.00;102417.00;4896561;29;20048;-84
2023/03/04 06:41:23;;;;;;;9.13;2.60;;;;;;;4.68;100.00;102420.94;4898953;29;20048;-85
2023/03/04 06:43:53;;;;;;;6.82;1.33;;;;;;;4.73;100.00;102421.97;4884281;29;20032;-84
2023/03/04 06:46:18;;;;;;;8.38;1.73;;;;;;;4.69;100.00;102430.88;4899008;29;20040;-84
2023/03/04 06:48:43;;;;;;;7.32;2.08;;;;;;;4.68;100.00;102426.47;4899381;29;20024;-84
2023/03/04 06:51:10;;;;;;;6.47;1.42;;;;;;;4.74;100.00;102424.44;4915063;29;20038;-84
2023/03/04 06:53:37;;;;;;;4.10;1.20;;;;;;;4.78;100.00;102430.22;4903156;29;20032;-84
2023/03/04 06:56:03;;;;;;;6.43;1.48;;;;;;;4.73;100.00;102430.31;4898739;29;20058;-84
2023/03/04 06:58:28;;;;;;;7.35;1.42;;;;;;;4.77;100.00;102425.81;4899633;29;20119;-83
2023/03/04 07:00:54;;;;;;;4.40;1.33;;;;;;;4.72;100.00;102431.41;4896742;29;20034;-84
2023/03/04 07:03:19;;;;;;;4.18;1.60;;;;;;;4.74;100.00;102429.97;4895948;29;20192;-83
2023/03/04 07:05:45;;;;;;;5.40;1.50;;;;;;;4.74;100.00;102423.63;4930263;29;20114;-83
2023/03/04 07:08:10;;;;;;;5.43;1.35;;;;;;;4.77;100.00;102428.56;4896809;29;20432;-84
2023/03/04 07:10:35;;;;;;;5.72;2.42;;;;;;;4.77;100.00;102428.56;4899956;29;20032;-84
2023/03/04 07:13:01;;;;;;;8.70;1.60;;;;;;;4.78;100.00;102430.22;4895975;29;20123;-84
2023/03/04 07:15:27;;;;;;;4.60;1.10;;;;;;;4.79;100.00;102429.09;4898973;29;20055;-84
2023/03/04 07:17:53;;;;;;;6.47;1.65;;;;;;;4.79;100.00;102431.88;4897047;29;20032;-84
2023/03/04 07:20:18;;;;;;;13.43;2.25;;;;;;;4.77;100.00;102423.03;4898911;29;20135;-84
2023/03/04 07:22:43;;;;;;;6.63;1.38;;;;;;;4.85;100.00;102436.22;4895625;29;20021;-84
2023/03/04 07:25:09;;;;;;;4.57;1.92;;;;;;;4.82;100.00;102436.81;4880735;29;20035;-84
2023/03/04 07:27:34;;;;;;;5.13;1.90;;;;;;;4.82;100.00;102437.63;4882450;29;20033;-84
2023/03/04 07:30:00;;;;;;;2.45;1.45;;;;;;;4.83;100.00;102441.25;4904865;29;20047;-84
2023/03/04 07:32:25;;;;;;;7.63;1.85;;;;;;;4.81;100.00;102437.94;4911505;29;20042;-83
2023/03/04 07:34:51;;;;;;;3.92;1.33;;;;;;;4.85;100.00;102444.53;4916154;29;20546;-83
2023/03/04 07:37:16;;;;;;;10.23;3.88;;;;;;;4.81;100.00;102443.50;4899048;29;20027;-84
2023/03/04 07:39:41;;;;;;;8.10;1.70;;;;;;;4.86;100.00;102443.41;4914487;29;20048;-84
2023/03/04 07:42:07;;;;;;;4.35;1.48;;;;;;;4.97;100.00;102447.66;4895344;29;20422;-84
2023/03/04 07:44:32;;;;;;;4.40;1.75;;;;;;;5.00;100.00;102447.09;4899855;29;20059;-84
2023/03/04 07:46:58;;;;;;;4.03;1.52;;;;;;;5.05;100.00;102440.63;4903933;29;20036;-84
2023/03/04 07:49:23;;;;;;;1.67;1.05;;;;;;;5.04;100.00;102442.56;4904809;29;20027;-85
2023/03/04 07:51:48;;;;;;;3.60;1.48;;;;;;;5.02;100.00;102446.78;4916347;29;20059;-84
2023/03/04 07:54:14;;;;;;;4.45;1.70;;;;;;;5.06;100.00;102448.66;4914612;29;20425;-84
2023/03/04 07:56:39;;;;;;;5.57;1.30;;;;;;;5.09;100.00;102441.66;4915041;29;20083;-84
2023/03/04 07:59:04;;;;;;;6.10;1.60;;;;;;;5.14;100.00;102446.31;4897533;29;20307;-84
2023/03/04 08:01:35;;;;;;;3.65;1.33;;;;;;;5.17;100.00;102448.50;4888545;29;20504;-84
2023/03/04 08:04:02;;;;;;;4.22;1.80;;;;;;;5.17;100.00;102451.25;4897290;29;20032;-84
2023/03/04 08:06:28;;;;;;;5.43;1.80;;;;;;;5.21;100.00;102455.91;4894619;29;20529;-84
2023/03/04 08:08:59;;;;;;;6.25;2.00;;;;;;;5.25;100.00;102450.56;4893628;29;20123;-84
2023/03/04 08:11:26;;;;;;;7.50;3.30;;;;;;;5.27;100.00;102453.84;4893521;29;20033;-84
2023/03/04 08:13:53;;;;;;;7.95;1.90;;;;;;;5.21;100.00;102443.97;4900095;29;20033;-84
2023/03/04 08:16:19;;;;;;;5.28;1.58;;;;;;;5.23;100.00;102447.28;4879319;29;20039;-84
2023/03/04 08:18:47;;;;;;;8.20;1.70;;;;;;;5.37;100.00;102461.19;4907412;29;20025;-84
2023/03/04 08:21:14;;;;;;;5.30;1.60;;;;;;;5.34;100.00;102454.31;4879276;29;20036;-84
2023/03/04 08:23:41;;;;;;;5.72;1.42;;;;;;;5.44;100.00;102447.72;4879367;29;20079;-84
2023/03/04 08:26:32;;;;;;;3.72;2.22;;;;;;;5.44;100.00;102448.56;4888604;29;20088;-84
2023/03/04 08:29:00;;;;;;;4.30;2.47;;;;;;;5.50;100.00;102439.03;4884429;29;20044;-84
2023/03/04 08:31:26;;;;;;;5.80;1.85;;;;;;;5.56;100.00;102450.03;4878938;29;20032;-84
2023/03/04 08:33:52;;;;;;;3.55;1.95;;;;;;;5.48;100.00;102449.63;4902160;29;20079;-83
2023/03/04 08:36:17;;;;;;;2.72;1.40;;;;;;;5.62;100.00;102448.81;4903223;29;20039;-84
2023/03/04 08:38:42;;;;;;;3.58;1.65;;;;;;;5.70;100.00;102445.34;4894301;29;20066;-84
2023/03/04 08:41:08;;;;;;;14.15;1.95;;;;;;;5.65;100.00;102450.97;4877765;29;20498;-85
2023/03/04 08:43:34;;;;;;;5.57;1.55;;;;;;;5.67;100.00;102451.47;4911331;29;20028;-84
2023/03/04 08:45:59;;;;;;;7.13;1.50;;;;;;;5.65;100.00;102459.31;4913487;29;20032;-84
2023/03/04 08:48:25;;;;;;;4.63;1.48;;;;;;;5.68;100.00;102447.59;4894255;29;20035;-84
2023/03/04 08:50:51;;;;;;;6.85;1.85;;;;;;;5.82;100.00;102454.00;4907747;29;20504;-84
2023/03/04 08:53:18;;;;;;;9.10;1.30;;;;;;;5.75;100.00;102447.19;4890665;29;20505;-84
2023/03/04 08:55:43;;;;;;;3.25;1.00;;;;;;;5.83;100.00;102444.50;4896707;29;20475;-84
2023/03/04 08:58:10;;;;;;;5.55;1.58;;;;;;;5.78;100.00;102441.84;4913337;29;20110;-84
2023/03/04 09:00:38;;;;;;;5.60;1.17;;;;;;;5.72;100.00;102451.41;4914479;29;20052;-84
2023/03/04 09:03:04;;;;;;;5.88;1.92;;;;;;;5.76;100.00;102449.66;4894402;29;20032;-84
2023/03/04 09:05:30;;;;;;;6.60;2.13;;;;;;;5.72;100.00;102451.41;4888141;29;20441;-84
2023/03/04 09:07:56;;;;;;;4.25;2.13;;;;;;;5.67;100.00;102451.47;4901410;29;20465;-84
2023/03/04 09:10:21;;;;;;;6.10;2.00;;;;;;;5.65;100.00;102446.25;4913815;29;20090;-84
2023/03/04 09:12:47;;;;;;;6.40;1.77;;;;;;;5.66;100.00;102449.84;4904641;29;20385;-84
2023/03/04 09:15:12;;;;;;;6.03;1.73;;;;;;;5.67;100.00;102451.47;4890184;29;20028;-85
2023/03/04 09:17:39;;;;;;;6.35;1.38;;;;;;;5.60;100.00;102451.06;4896018;29;20038;-84
2023/03/04 09:20:08;;;;;;;4.15;1.15;;;;;;;5.67;100.00;102459.81;4893071;29;20035;-84
2023/03/04 09:22:35;;;;;;;5.07;1.55;;;;;;;5.59;100.00;102468.88;4904779;29;20053;-84
2023/03/04 09:25:00;;;;;;;8.48;1.88;;;;;;;5.58;100.00;102470.00;4884236;29;20044;-84
2023/03/04 09:27:25;;;;;;;4.15;1.70;;;;;;;5.50;100.00;102455.69;4890149;29;20024;-84
2023/03/04 09:29:51;;;;;;;7.05;2.75;;;;;;;5.61;100.00;102461.06;4914266;29;20032;-84
2023/03/04 09:32:16;;;;;;;4.28;2.35;;;;;;;5.72;100.00;102454.19;4895246;29;20392;-84
2023/03/04 09:34:42;;;;;;;2.83;1.65;;;;;;;5.74;100.00;102457.47;4896839;29;20111;-84
2023/03/04 09:37:07;;;;;;;4.80;1.83;;;;;;;5.82;100.00;102465.13;4896565;29;20051;-84
2023/03/04 09:39:33;;;;;;;7.93;2.95;;;;;;;5.87;100.00;102455.84;4896823;29;20036;-84
2023/03/04 09:41:59;;;;;;;10.13;4.15;;;;;;;5.93;100.00;102448.25;4920977;29;20027;-84
2023/03/04 09:44:38;;;;;;;7.03;2.92;;;;;;;5.98;100.00;102451.75;4904006;29;20028;-84
2023/03/04 09:47:16;;;;;;;10.23;4.85;;;;;;;6.01;100.00;102453.09;4896843;29;20028;-84
2023/03/04 09:49:47;;;;;;;6.55;2.45;;;;;;;6.10;100.00;102449.31;4896568;29;20103;-84
2023/03/04 09:52:49;;;;;;;10.05;2.50;;;;;;;6.20;100.00;102453.84;4889504;29;20241;-84
2023/03/04 09:55:32;;;;;;;5.82;2.10;;;;;;;6.12;100.00;102451.78;4905209;29;20477;-84
2023/03/04 09:58:05;;;;;;;4.53;1.48;;;;;;;6.21;100.00;102449.91;4882321;29;20048;-84
2023/03/04 10:01:01;;;;;;;6.32;1.80;;;;;;;6.28;100.00;102442.00;4902012;29;20555;-84
2023/03/04 10:03:43;;;;;;;7.78;1.90;;;;;;;6.28;100.00;102441.16;4881998;29;20438;-84
2023/03/04 10:06:15;;;;;;;3.88;1.48;;;;;;;6.25;100.00;102444.56;4900372;29;20112;-84
2023/03/04 10:08:44;;;;;;;7.75;2.05;;;;;;;6.20;100.00;102448.28;4894849;29;20127;-84
2023/03/04 10:11:41;;;;;;;7.43;2.17;;;;;;;6.10;100.00;102446.53;4896983;29;20121;-83
2023/03/04 10:14:22;;;;;;;6.47;2.65;;;;;;;6.21;100.00;102449.91;4876523;29;20066;-84
2023/03/04 10:17:05;;;;;;;5.32;2.50;;;;;;;6.04;100.00;102455.28;4904103;29;20482;-84
2023/03/04 10:19:52;;;;;;;6.53;1.90;;;;;;;6.02;100.00;102451.97;4914530;29;20576;-84
2023/03/04 10:22:42;;;;;;;5.25;2.28;;;;;;;5.90;100.00;102449.66;4915158;29;20075;-84
2023/03/04 10:25:27;;;;;;;4.88;2.13;;;;;;;5.95;100.00;102451.56;4899453;29;20118;-84
2023/03/04 10:27:57;;;;;;;12.40;2.40;;;;;;;6.00;100.00;102449.50;4899924;29;20119;-84
2023/03/04 10:30:37;;;;;;;7.07;2.17;;;;;;;6.13;100.00;102442.28;4899726;29;20031;-84
2023/03/04 10:33:11;;;;;;;11.65;2.95;;;;;;;6.22;100.00;102446.00;4915156;29;20087;-84
2023/03/04 10:35:37;;;;;;;12.85;3.03;;;;;;;6.31;100.00;102449.69;4916235;29;20114;-84
2023/03/04 10:38:03;;;;;;;11.90;2.85;;;;;;;6.28;100.00;102450.34;4905165;29;20116;-83
2023/03/04 10:40:37;;;;;;;14.88;3.00;;;;;;;6.23;100.00;102453.22;4924633;29;20052;-84
2023/03/04 10:43:06;;;;;;;17.88;4.45;;;;;;;6.14;100.00;102448.69;4915125;29;20016;-84
2023/03/04 10:45:38;;;;;;;13.63;3.20;;;;;;;6.10;100.00;102454.03;4896086;29;20032;-83
2023/03/04 10:48:04;;;;;;;16.02;2.88;;;;;;;6.02;100.00;102460.31;4880668;29;20415;-84
2023/03/04 10:50:30;;;;;;;8.00;2.40;;;;;;;5.90;100.00;102453.28;4918786;29;20035;-83
2023/03/04 10:52:56;;;;;;;9.00;2.60;;;;;;;5.88;100.00;102452.78;4897765;29;20024;-84
2023/03/04 10:55:28;;;;;;;9.18;2.20;;;;;;;6.03;100.00;102456.41;4899366;29;20152;-83
2023/03/04 10:58:03;;;;;;;9.77;2.13;;;;;;;6.05;100.00;102456.91;4899165;29;20380;-83
2023/03/04 11:00:33;;;;;;;19.77;5.55;;;;;;;6.16;100.00;102455.59;4912453;29;20441;-83
2023/03/04 11:03:21;;;;;;;15.18;2.83;;;;;;;6.20;100.00;102453.00;4896353;29;20091;-84
2023/03/04 11:05:46;;;;;;;5.97;2.33;;;;;;;6.20;100.00;102453.84;4903605;29;20036;-83
2023/03/04 11:08:21;;;;;;;13.52;2.33;;;;;;;6.20;100.00;102453.00;4893730;29;20076;-83
2023/03/04 11:10:48;;;;;;;9.90;2.78;;;;;;;6.20;100.00;102439.94;4896144;29;20028;-84
2023/03/04 11:13:21;;;;;;;20.15;4.07;;;;;;;6.28;100.00;102439.22;4899370;29;20088;-84
2023/03/04 11:15:53;;;;;;;22.52;2.92;;;;;;;6.22;100.00;102446.00;4916323;29;20127;-83
2023/03/04 11:18:26;;;;;;;15.73;2.67;;;;;;;6.20;100.00;102441.88;4910648;29;20109;-84
2023/03/04 11:20:53;;;;;;;15.15;3.35;;;;;;;6.19;100.00;102448.56;4897378;29;20039;-84
2023/03/04 11:23:36;;;;;;;11.15;2.28;;;;;;;6.15;100.00;102448.38;4914397;29;20043;-84